sensor_id;sensor_type;location;lat;lon;timestamp;P1;durP1;ratioP1;P2;durP2;ratioP2
19101;SDS011;9683;49.028;12.064;2023-11-21T00:01:06;190.10;;;11.30;;
19101;SDS011;9683;49.028;12.064;2023-11-21T00:03:33;203.10;;;13.03;;
19101;SDS011;9683;49.028;12.064;2023-11-21T00:06:02;217.20;;;13.97;;
19101;SDS011;9683;49.028;12.064;2023-11-21T00:08:29;236.23;;;14.03;;
19101;SDS011;9683;49.028;12.064;2023-11-21T00:10:56;182.87;;;11.40;;
19101;SDS011;9683;49.028;12.064;2023-11-21T00:13:25;192.60;;;11.70;;
19101;SDS011;9683;49.028;12.064;2023-11-21T00:15:52;211.33;;;12.10;;
19101;SDS011;9683;49.028;12.064;2023-11-21T00:18:18;181.97;;;10.77;;
19101;SDS011;9683;49.028;12.064;2023-11-21T00:20:45;184.90;;;10.93;;
19101;SDS011;9683;49.028;12.064;2023-11-21T00:23:13;170.20;;;10.73;;
19101;SDS011;9683;49.028;12.064;2023-11-21T00:25:39;220.47;;;12.67;;
19101;SDS011;9683;49.028;12.064;2023-11-21T00:28:06;197.57;;;11.40;;
19101;SDS011;9683;49.028;12.064;2023-11-21T00:30:33;172.50;;;10.40;;
19101;SDS011;9683;49.028;12.064;2023-11-21T00:32:59;183.30;;;11.90;;
19101;SDS011;9683;49.028;12.064;2023-11-21T00:35:26;200.30;;;12.60;;
19101;SDS011;9683;49.028;12.064;2023-11-21T00:37:52;188.73;;;11.60;;
19101;SDS011;9683;49.028;12.064;2023-11-21T00:40:20;218.97;;;12.73;;
19101;SDS011;9683;49.028;12.064;2023-11-21T00:42:47;212.53;;;12.70;;
19101;SDS011;9683;49.028;12.064;2023-11-21T00:45:14;219.30;;;12.73;;
19101;SDS011;9683;49.028;12.064;2023-11-21T00:47:40;195.70;;;11.33;;
19101;SDS011;9683;49.028;12.064;2023-11-21T00:50:07;184.03;;;11.63;;
19101;SDS011;9683;49.028;12.064;2023-11-21T00:52:35;194.97;;;11.60;;
19101;SDS011;9683;49.028;12.064;2023-11-21T00:55:01;180.60;;;10.77;;
19101;SDS011;9683;49.028;12.064;2023-11-21T00:57:29;195.53;;;11.30;;
19101;SDS011;9683;49.028;12.064;2023-11-21T00:59:56;189.73;;;11.03;;
19101;SDS011;9683;49.028;12.064;2023-11-21T01:02:22;240.10;;;13.90;;
19101;SDS011;9683;49.028;12.064;2023-11-21T01:04:49;230.37;;;13.40;;
19101;SDS011;9683;49.028;12.064;2023-11-21T01:07:15;197.43;;;12.73;;
19101;SDS011;9683;49.028;12.064;2023-11-21T01:09:42;235.77;;;14.30;;
19101;SDS011;9683;49.028;12.064;2023-11-21T01:12:09;216.30;;;13.33;;
19101;SDS011;9683;49.028;12.064;2023-11-21T01:14:37;178.93;;;10.90;;
19101;SDS011;9683;49.028;12.064;2023-11-21T01:17:04;144.63;;;9.70;;
19101;SDS011;9683;49.028;12.064;2023-11-21T01:19:31;158.37;;;9.57;;
19101;SDS011;9683;49.028;12.064;2023-11-21T01:21:57;182.10;;;11.50;;
19101;SDS011;9683;49.028;12.064;2023-11-21T01:24:24;200.90;;;12.53;;
19101;SDS011;9683;49.028;12.064;2023-11-21T01:26:50;249.30;;;14.47;;
19101;SDS011;9683;49.028;12.064;2023-11-21T01:29:17;219.60;;;13.40;;
19101;SDS011;9683;49.028;12.064;2023-11-21T01:31:45;194.90;;;11.97;;
19101;SDS011;9683;49.028;12.064;2023-11-21T01:34:10;209.00;;;12.33;;
19101;SDS011;9683;49.028;12.064;2023-11-21T01:36:37;164.40;;;10.03;;
19101;SDS011;9683;49.028;12.064;2023-11-21T01:39:03;183.00;;;10.90;;
19101;SDS011;9683;49.028;12.064;2023-11-21T01:41:33;206.10;;;12.90;;
19101;SDS011;9683;49.028;12.064;2023-11-21T01:44:00;192.17;;;12.10;;
19101;SDS011;9683;49.028;12.064;2023-11-21T01:46:27;161.97;;;9.73;;
19101;SDS011;9683;49.028;12.064;2023-11-21T01:48:55;208.87;;;12.43;;
19101;SDS011;9683;49.028;12.064;2023-11-21T01:51:22;185.97;;;10.73;;
19101;SDS011;9683;49.028;12.064;2023-11-21T01:53:48;193.53;;;11.50;;
19101;SDS011;9683;49.028;12.064;2023-11-21T01:56:15;219.17;;;13.03;;
19101;SDS011;9683;49.028;12.064;2023-11-21T01:58:42;206.73;;;12.37;;
19101;SDS011;9683;49.028;12.064;2023-11-21T02:01:11;232.10;;;13.50;;
19101;SDS011;9683;49.028;12.064;2023-11-21T02:03:39;214.07;;;13.43;;
19101;SDS011;9683;49.028;12.064;2023-11-21T02:06:07;199.00;;;12.00;;
19101;SDS011;9683;49.028;12.064;2023-11-21T02:08:34;191.07;;;11.07;;
19101;SDS011;9683;49.028;12.064;2023-11-21T02:11:02;206.47;;;13.17;;
19101;SDS011;9683;49.028;12.064;2023-11-21T02:13:29;190.27;;;11.23;;
19101;SDS011;9683;49.028;12.064;2023-11-21T02:15:56;209.43;;;12.27;;
19101;SDS011;9683;49.028;12.064;2023-11-21T02:18:23;206.20;;;12.20;;
19101;SDS011;9683;49.028;12.064;2023-11-21T02:20:49;203.57;;;12.13;;
19101;SDS011;9683;49.028;12.064;2023-11-21T02:23:17;202.27;;;11.70;;
19101;SDS011;9683;49.028;12.064;2023-11-21T02:25:44;176.40;;;10.33;;
19101;SDS011;9683;49.028;12.064;2023-11-21T02:28:11;201.63;;;11.63;;
19101;SDS011;9683;49.028;12.064;2023-11-21T02:30:41;203.80;;;11.70;;
19101;SDS011;9683;49.028;12.064;2023-11-21T02:33:08;212.20;;;12.37;;
19101;SDS011;9683;49.028;12.064;2023-11-21T02:35:35;167.13;;;9.93;;
19101;SDS011;9683;49.028;12.064;2023-11-21T02:38:03;225.10;;;12.53;;
19101;SDS011;9683;49.028;12.064;2023-11-21T02:40:31;179.07;;;10.30;;
19101;SDS011;9683;49.028;12.064;2023-11-21T02:42:57;229.53;;;13.33;;
19101;SDS011;9683;49.028;12.064;2023-11-21T02:45:24;207.60;;;12.30;;
19101;SDS011;9683;49.028;12.064;2023-11-21T02:47:51;191.70;;;12.10;;
19101;SDS011;9683;49.028;12.064;2023-11-21T02:50:18;225.90;;;12.87;;
19101;SDS011;9683;49.028;12.064;2023-11-21T02:52:45;156.20;;;9.23;;
19101;SDS011;9683;49.028;12.064;2023-11-21T02:55:11;224.70;;;12.33;;
19101;SDS011;9683;49.028;12.064;2023-11-21T02:57:39;189.90;;;11.13;;
19101;SDS011;9683;49.028;12.064;2023-11-21T03:00:06;189.00;;;10.60;;
19101;SDS011;9683;49.028;12.064;2023-11-21T03:02:35;187.67;;;10.77;;
19101;SDS011;9683;49.028;12.064;2023-11-21T03:05:04;127.03;;;7.57;;
19101;SDS011;9683;49.028;12.064;2023-11-21T03:07:31;138.93;;;8.23;;
19101;SDS011;9683;49.028;12.064;2023-11-21T03:09:57;219.43;;;12.23;;
19101;SDS011;9683;49.028;12.064;2023-11-21T03:12:24;176.70;;;10.10;;
19101;SDS011;9683;49.028;12.064;2023-11-21T03:14:52;214.77;;;12.17;;
19101;SDS011;9683;49.028;12.064;2023-11-21T03:17:19;198.73;;;10.93;;
19101;SDS011;9683;49.028;12.064;2023-11-21T03:19:46;162.37;;;9.43;;
19101;SDS011;9683;49.028;12.064;2023-11-21T03:22:12;206.37;;;12.00;;
19101;SDS011;9683;49.028;12.064;2023-11-21T03:24:39;209.43;;;11.50;;
19101;SDS011;9683;49.028;12.064;2023-11-21T03:27:05;244.40;;;13.60;;
19101;SDS011;9683;49.028;12.064;2023-11-21T03:29:33;214.57;;;11.90;;
19101;SDS011;9683;49.028;12.064;2023-11-21T03:32:01;200.80;;;11.30;;
19101;SDS011;9683;49.028;12.064;2023-11-21T03:34:27;231.27;;;13.00;;
19101;SDS011;9683;49.028;12.064;2023-11-21T03:36:54;240.63;;;13.90;;
19101;SDS011;9683;49.028;12.064;2023-11-21T03:39:21;196.67;;;11.10;;
19101;SDS011;9683;49.028;12.064;2023-11-21T03:41:48;210.60;;;12.00;;
19101;SDS011;9683;49.028;12.064;2023-11-21T03:44:14;205.37;;;11.50;;
19101;SDS011;9683;49.028;12.064;2023-11-21T03:46:42;205.13;;;11.30;;
19101;SDS011;9683;49.028;12.064;2023-11-21T03:49:10;210.43;;;11.60;;
19101;SDS011;9683;49.028;12.064;2023-11-21T03:51:37;206.87;;;11.53;;
19101;SDS011;9683;49.028;12.064;2023-11-21T03:54:03;214.53;;;11.93;;
19101;SDS011;9683;49.028;12.064;2023-11-21T03:56:30;205.43;;;11.87;;
19101;SDS011;9683;49.028;12.064;2023-11-21T03:58:57;205.77;;;11.67;;
19101;SDS011;9683;49.028;12.064;2023-11-21T04:01:23;195.73;;;11.43;;
19101;SDS011;9683;49.028;12.064;2023-11-21T04:03:51;226.63;;;12.83;;
19101;SDS011;9683;49.028;12.064;2023-11-21T04:06:19;232.53;;;13.47;;
19101;SDS011;9683;49.028;12.064;2023-11-21T04:08:45;232.47;;;12.90;;
19101;SDS011;9683;49.028;12.064;2023-11-21T04:11:12;247.27;;;13.80;;
19101;SDS011;9683;49.028;12.064;2023-11-21T04:13:38;205.70;;;11.70;;
19101;SDS011;9683;49.028;12.064;2023-11-21T04:16:05;230.30;;;12.93;;
19101;SDS011;9683;49.028;12.064;2023-11-21T04:18:33;245.17;;;13.57;;
19101;SDS011;9683;49.028;12.064;2023-11-21T04:20:59;244.67;;;13.67;;
19101;SDS011;9683;49.028;12.064;2023-11-21T04:23:28;214.87;;;12.33;;
19101;SDS011;9683;49.028;12.064;2023-11-21T04:25:56;219.30;;;13.10;;
19101;SDS011;9683;49.028;12.064;2023-11-21T04:28:23;237.83;;;13.80;;
19101;SDS011;9683;49.028;12.064;2023-11-21T04:30:50;218.43;;;12.57;;
19101;SDS011;9683;49.028;12.064;2023-11-21T04:33:16;219.87;;;12.53;;
19101;SDS011;9683;49.028;12.064;2023-11-21T04:35:43;226.20;;;13.10;;
19101;SDS011;9683;49.028;12.064;2023-11-21T04:38:09;214.40;;;12.33;;
19101;SDS011;9683;49.028;12.064;2023-11-21T04:40:37;208.43;;;11.63;;
19101;SDS011;9683;49.028;12.064;2023-11-21T04:43:04;207.80;;;11.87;;
19101;SDS011;9683;49.028;12.064;2023-11-21T04:45:31;215.00;;;12.60;;
19101;SDS011;9683;49.028;12.064;2023-11-21T04:47:57;167.10;;;10.20;;
19101;SDS011;9683;49.028;12.064;2023-11-21T04:50:24;182.53;;;10.40;;
19101;SDS011;9683;49.028;12.064;2023-11-21T04:52:52;145.97;;;8.57;;
19101;SDS011;9683;49.028;12.064;2023-11-21T04:55:18;141.90;;;8.90;;
19101;SDS011;9683;49.028;12.064;2023-11-21T04:57:46;143.00;;;9.20;;
19101;SDS011;9683;49.028;12.064;2023-11-21T05:00:13;232.97;;;13.70;;
19101;SDS011;9683;49.028;12.064;2023-11-21T05:02:41;190.80;;;11.60;;
19101;SDS011;9683;49.028;12.064;2023-11-21T05:05:09;177.60;;;10.57;;
19101;SDS011;9683;49.028;12.064;2023-11-21T05:07:36;193.07;;;11.00;;
19101;SDS011;9683;49.028;12.064;2023-11-21T05:10:03;240.57;;;13.97;;
19101;SDS011;9683;49.028;12.064;2023-11-21T05:12:33;236.93;;;13.80;;
19101;SDS011;9683;49.028;12.064;2023-11-21T05:15:02;203.17;;;11.20;;
19101;SDS011;9683;49.028;12.064;2023-11-21T05:17:34;217.93;;;12.67;;
19101;SDS011;9683;49.028;12.064;2023-11-21T05:20:01;201.33;;;12.07;;
19101;SDS011;9683;49.028;12.064;2023-11-21T05:22:29;228.83;;;13.83;;
19101;SDS011;9683;49.028;12.064;2023-11-21T05:24:55;201.17;;;11.97;;
19101;SDS011;9683;49.028;12.064;2023-11-21T05:27:22;190.37;;;11.30;;
19101;SDS011;9683;49.028;12.064;2023-11-21T05:29:48;177.43;;;10.67;;
19101;SDS011;9683;49.028;12.064;2023-11-21T05:32:16;223.55;;;13.10;;
19101;SDS011;9683;49.028;12.064;2023-11-21T05:34:43;225.40;;;13.17;;
19101;SDS011;9683;49.028;12.064;2023-11-21T05:37:10;201.93;;;12.20;;
19101;SDS011;9683;49.028;12.064;2023-11-21T05:39:36;220.97;;;13.90;;
19101;SDS011;9683;49.028;12.064;2023-11-21T05:42:03;251.10;;;14.30;;
19101;SDS011;9683;49.028;12.064;2023-11-21T05:44:30;220.40;;;12.97;;
19101;SDS011;9683;49.028;12.064;2023-11-21T05:46:56;197.33;;;13.70;;
19101;SDS011;9683;49.028;12.064;2023-11-21T05:49:25;232.30;;;13.67;;
19101;SDS011;9683;49.028;12.064;2023-11-21T05:51:52;178.47;;;10.80;;
19101;SDS011;9683;49.028;12.064;2023-11-21T05:54:19;207.03;;;12.00;;
19101;SDS011;9683;49.028;12.064;2023-11-21T05:56:46;196.87;;;11.93;;
19101;SDS011;9683;49.028;12.064;2023-11-21T05:59:13;221.43;;;13.87;;
19101;SDS011;9683;49.028;12.064;2023-11-21T06:01:39;208.00;;;12.27;;
19101;SDS011;9683;49.028;12.064;2023-11-21T06:04:06;220.80;;;13.20;;
19101;SDS011;9683;49.028;12.064;2023-11-21T06:06:34;204.83;;;12.37;;
19101;SDS011;9683;49.028;12.064;2023-11-21T06:09:01;212.30;;;12.70;;
19101;SDS011;9683;49.028;12.064;2023-11-21T06:11:28;192.83;;;11.60;;
19101;SDS011;9683;49.028;12.064;2023-11-21T06:13:54;205.53;;;12.53;;
19101;SDS011;9683;49.028;12.064;2023-11-21T06:16:21;213.40;;;12.90;;
19101;SDS011;9683;49.028;12.064;2023-11-21T06:18:47;243.53;;;14.03;;
19101;SDS011;9683;49.028;12.064;2023-11-21T06:21:14;234.90;;;13.70;;
19101;SDS011;9683;49.028;12.064;2023-11-21T06:23:43;238.63;;;14.93;;
19101;SDS011;9683;49.028;12.064;2023-11-21T06:26:09;244.37;;;14.50;;
19101;SDS011;9683;49.028;12.064;2023-11-21T06:28:36;119.83;;;7.90;;
19101;SDS011;9683;49.028;12.064;2023-11-21T06:31:02;216.67;;;13.03;;
19101;SDS011;9683;49.028;12.064;2023-11-21T06:33:30;195.63;;;11.90;;
19101;SDS011;9683;49.028;12.064;2023-11-21T06:35:56;202.27;;;12.10;;
19101;SDS011;9683;49.028;12.064;2023-11-21T06:38:23;229.00;;;13.63;;
19101;SDS011;9683;49.028;12.064;2023-11-21T06:40:51;237.73;;;24.30;;
19101;SDS011;9683;49.028;12.064;2023-11-21T06:43:17;185.87;;;19.53;;
19101;SDS011;9683;49.028;12.064;2023-11-21T06:45:44;198.47;;;21.23;;
19101;SDS011;9683;49.028;12.064;2023-11-21T06:48:10;201.83;;;19.80;;
19101;SDS011;9683;49.028;12.064;2023-11-21T06:50:37;232.90;;;24.17;;
19101;SDS011;9683;49.028;12.064;2023-11-21T06:53:03;221.93;;;21.60;;
19101;SDS011;9683;49.028;12.064;2023-11-21T06:55:32;198.27;;;21.10;;
19101;SDS011;9683;49.028;12.064;2023-11-21T06:58:00;211.33;;;22.20;;
19101;SDS011;9683;49.028;12.064;2023-11-21T07:00:26;248.73;;;24.50;;
19101;SDS011;9683;49.028;12.064;2023-11-21T07:02:54;196.53;;;21.63;;
19101;SDS011;9683;49.028;12.064;2023-11-21T07:05:20;217.73;;;22.40;;
19101;SDS011;9683;49.028;12.064;2023-11-21T07:07:47;210.43;;;22.07;;
19101;SDS011;9683;49.028;12.064;2023-11-21T07:10:14;208.00;;;20.77;;
19101;SDS011;9683;49.028;12.064;2023-11-21T07:12:40;201.77;;;20.60;;
19101;SDS011;9683;49.028;12.064;2023-11-21T07:15:09;218.40;;;21.53;;
19101;SDS011;9683;49.028;12.064;2023-11-21T07:17:36;214.50;;;20.97;;
19101;SDS011;9683;49.028;12.064;2023-11-21T07:20:03;212.33;;;21.47;;
19101;SDS011;9683;49.028;12.064;2023-11-21T07:22:31;232.00;;;22.60;;
19101;SDS011;9683;49.028;12.064;2023-11-21T07:24:58;184.57;;;19.57;;
19101;SDS011;9683;49.028;12.064;2023-11-21T07:27:24;181.97;;;18.00;;
19101;SDS011;9683;49.028;12.064;2023-11-21T07:29:51;196.20;;;19.73;;
19101;SDS011;9683;49.028;12.064;2023-11-21T07:32:19;227.90;;;22.73;;
19101;SDS011;9683;49.028;12.064;2023-11-21T07:34:45;192.13;;;20.67;;
19101;SDS011;9683;49.028;12.064;2023-11-21T07:37:12;213.20;;;20.93;;
19101;SDS011;9683;49.028;12.064;2023-11-21T07:39:39;204.90;;;21.20;;
19101;SDS011;9683;49.028;12.064;2023-11-21T07:42:07;267.70;;;25.60;;
19101;SDS011;9683;49.028;12.064;2023-11-21T07:44:34;212.30;;;20.43;;
19101;SDS011;9683;49.028;12.064;2023-11-21T07:47:00;222.40;;;20.87;;
19101;SDS011;9683;49.028;12.064;2023-11-21T07:49:28;198.27;;;20.03;;
19101;SDS011;9683;49.028;12.064;2023-11-21T07:51:55;179.00;;;18.80;;
19101;SDS011;9683;49.028;12.064;2023-11-21T07:54:21;252.07;;;23.80;;
19101;SDS011;9683;49.028;12.064;2023-11-21T07:56:48;193.03;;;17.63;;
19101;SDS011;9683;49.028;12.064;2023-11-21T07:59:14;192.20;;;18.93;;
19101;SDS011;9683;49.028;12.064;2023-11-21T08:01:42;172.50;;;17.80;;
19101;SDS011;9683;49.028;12.064;2023-11-21T08:04:10;219.87;;;20.57;;
19101;SDS011;9683;49.028;12.064;2023-11-21T08:06:39;166.70;;;16.00;;
19101;SDS011;9683;49.028;12.064;2023-11-21T08:09:06;156.50;;;16.00;;
19101;SDS011;9683;49.028;12.064;2023-11-21T08:11:33;183.87;;;17.17;;
19101;SDS011;9683;49.028;12.064;2023-11-21T08:14:00;182.23;;;16.80;;
19101;SDS011;9683;49.028;12.064;2023-11-21T08:16:26;193.37;;;18.57;;
19101;SDS011;9683;49.028;12.064;2023-11-21T08:18:53;168.73;;;16.13;;
19101;SDS011;9683;49.028;12.064;2023-11-21T08:21:20;164.47;;;16.13;;
19101;SDS011;9683;49.028;12.064;2023-11-21T08:23:50;203.63;;;17.87;;
19101;SDS011;9683;49.028;12.064;2023-11-21T08:26:19;183.03;;;16.23;;
19101;SDS011;9683;49.028;12.064;2023-11-21T08:28:46;60.07;;;6.60;;
19101;SDS011;9683;49.028;12.064;2023-11-21T08:31:13;76.10;;;7.87;;
19101;SDS011;9683;49.028;12.064;2023-11-21T08:33:39;81.30;;;7.97;;
19101;SDS011;9683;49.028;12.064;2023-11-21T08:36:06;71.73;;;7.97;;
19101;SDS011;9683;49.028;12.064;2023-11-21T08:38:35;204.43;;;19.13;;
19101;SDS011;9683;49.028;12.064;2023-11-21T08:41:04;168.73;;;15.63;;
19101;SDS011;9683;49.028;12.064;2023-11-21T08:43:32;207.60;;;18.63;;
19101;SDS011;9683;49.028;12.064;2023-11-21T08:45:59;183.53;;;17.23;;
19101;SDS011;9683;49.028;12.064;2023-11-21T08:48:26;204.03;;;19.37;;
19101;SDS011;9683;49.028;12.064;2023-11-21T08:50:54;188.87;;;18.30;;
19101;SDS011;9683;49.028;12.064;2023-11-21T08:53:21;196.63;;;17.37;;
19101;SDS011;9683;49.028;12.064;2023-11-21T08:55:48;192.47;;;17.40;;
19101;SDS011;9683;49.028;12.064;2023-11-21T08:58:16;180.37;;;17.40;;
19101;SDS011;9683;49.028;12.064;2023-11-21T09:00:42;187.03;;;16.40;;
19101;SDS011;9683;49.028;12.064;2023-11-21T09:03:09;200.90;;;17.10;;
19101;SDS011;9683;49.028;12.064;2023-11-21T09:05:37;193.43;;;18.63;;
19101;SDS011;9683;49.028;12.064;2023-11-21T09:08:04;181.40;;;16.37;;
19101;SDS011;9683;49.028;12.064;2023-11-21T09:10:31;178.13;;;15.50;;
19101;SDS011;9683;49.028;12.064;2023-11-21T09:13:00;206.33;;;18.40;;
19101;SDS011;9683;49.028;12.064;2023-11-21T09:15:29;191.87;;;17.00;;
19101;SDS011;9683;49.028;12.064;2023-11-21T09:17:55;191.33;;;16.87;;
19101;SDS011;9683;49.028;12.064;2023-11-21T09:20:22;165.07;;;15.20;;
19101;SDS011;9683;49.028;12.064;2023-11-21T09:22:48;169.63;;;15.10;;
19101;SDS011;9683;49.028;12.064;2023-11-21T09:25:15;139.63;;;12.60;;
19101;SDS011;9683;49.028;12.064;2023-11-21T09:27:42;179.50;;;16.43;;
19101;SDS011;9683;49.028;12.064;2023-11-21T09:30:08;194.47;;;16.43;;
19101;SDS011;9683;49.028;12.064;2023-11-21T09:32:37;186.80;;;16.67;;
19101;SDS011;9683;49.028;12.064;2023-11-21T09:35:05;180.30;;;14.07;;
19101;SDS011;9683;49.028;12.064;2023-11-21T09:37:33;194.10;;;15.30;;
19101;SDS011;9683;49.028;12.064;2023-11-21T09:40:01;204.03;;;15.27;;
19101;SDS011;9683;49.028;12.064;2023-11-21T09:42:30;208.03;;;17.37;;
19101;SDS011;9683;49.028;12.064;2023-11-21T09:45:03;196.83;;;15.17;;
19101;SDS011;9683;49.028;12.064;2023-11-21T09:47:32;202.87;;;15.97;;
19101;SDS011;9683;49.028;12.064;2023-11-21T09:50:03;180.17;;;16.30;;
19101;SDS011;9683;49.028;12.064;2023-11-21T09:52:33;214.17;;;17.30;;
19101;SDS011;9683;49.028;12.064;2023-11-21T09:55:07;187.20;;;14.73;;
19101;SDS011;9683;49.028;12.064;2023-11-21T09:57:38;163.47;;;13.40;;
19101;SDS011;9683;49.028;12.064;2023-11-21T10:00:05;217.40;;;16.57;;
19101;SDS011;9683;49.028;12.064;2023-11-21T10:02:37;180.33;;;14.87;;
19101;SDS011;9683;49.028;12.064;2023-11-21T10:05:05;138.57;;;12.77;;
19101;SDS011;9683;49.028;12.064;2023-11-21T10:07:34;178.40;;;14.50;;
19101;SDS011;9683;49.028;12.064;2023-11-21T10:10:01;161.37;;;14.83;;
19101;SDS011;9683;49.028;12.064;2023-11-21T10:12:28;176.07;;;14.77;;
19101;SDS011;9683;49.028;12.064;2023-11-21T10:14:56;176.00;;;14.23;;
19101;SDS011;9683;49.028;12.064;2023-11-21T10:17:25;183.37;;;14.20;;
19101;SDS011;9683;49.028;12.064;2023-11-21T10:19:55;205.37;;;15.20;;
19101;SDS011;9683;49.028;12.064;2023-11-21T10:22:25;217.60;;;16.53;;
19101;SDS011;9683;49.028;12.064;2023-11-21T10:24:52;221.23;;;16.70;;
19101;SDS011;9683;49.028;12.064;2023-11-21T10:27:18;210.60;;;16.60;;
19101;SDS011;9683;49.028;12.064;2023-11-21T10:29:45;178.47;;;14.90;;
19101;SDS011;9683;49.028;12.064;2023-11-21T10:32:12;216.40;;;16.93;;
19101;SDS011;9683;49.028;12.064;2023-11-21T10:34:38;206.07;;;16.77;;
19101;SDS011;9683;49.028;12.064;2023-11-21T10:37:10;198.23;;;15.07;;
19101;SDS011;9683;49.028;12.064;2023-11-21T10:39:39;187.17;;;15.30;;
19101;SDS011;9683;49.028;12.064;2023-11-21T10:42:07;204.87;;;16.50;;
19101;SDS011;9683;49.028;12.064;2023-11-21T10:44:35;188.13;;;15.83;;
19101;SDS011;9683;49.028;12.064;2023-11-21T10:47:01;192.60;;;14.57;;
19101;SDS011;9683;49.028;12.064;2023-11-21T10:49:28;195.67;;;14.97;;
19101;SDS011;9683;49.028;12.064;2023-11-21T10:51:55;175.90;;;14.20;;
19101;SDS011;9683;49.028;12.064;2023-11-21T10:54:22;181.57;;;14.00;;
19101;SDS011;9683;49.028;12.064;2023-11-21T10:56:53;251.03;;;18.43;;
19101;SDS011;9683;49.028;12.064;2023-11-21T10:59:22;208.13;;;16.13;;
19101;SDS011;9683;49.028;12.064;2023-11-21T11:01:50;214.37;;;16.57;;
19101;SDS011;9683;49.028;12.064;2023-11-21T11:04:18;173.10;;;13.00;;
19101;SDS011;9683;49.028;12.064;2023-11-21T11:06:48;198.97;;;16.70;;
19101;SDS011;9683;49.028;12.064;2023-11-21T11:09:18;198.70;;;17.27;;
19101;SDS011;9683;49.028;12.064;2023-11-21T11:11:44;198.37;;;16.50;;
19101;SDS011;9683;49.028;12.064;2023-11-21T11:14:13;186.03;;;15.70;;
19101;SDS011;9683;49.028;12.064;2023-11-21T11:16:41;200.93;;;17.30;;
19101;SDS011;9683;49.028;12.064;2023-11-21T11:19:08;206.60;;;17.10;;
19101;SDS011;9683;49.028;12.064;2023-11-21T11:21:38;208.87;;;17.27;;
19101;SDS011;9683;49.028;12.064;2023-11-21T11:24:18;173.70;;;15.07;;
19101;SDS011;9683;49.028;12.064;2023-11-21T11:26:55;208.93;;;18.40;;
19101;SDS011;9683;49.028;12.064;2023-11-21T11:29:30;195.40;;;16.80;;
19101;SDS011;9683;49.028;12.064;2023-11-21T11:32:04;184.63;;;14.83;;
19101;SDS011;9683;49.028;12.064;2023-11-21T11:34:40;187.43;;;15.20;;
19101;SDS011;9683;49.028;12.064;2023-11-21T11:37:11;181.20;;;15.03;;
19101;SDS011;9683;49.028;12.064;2023-11-21T11:39:39;181.37;;;15.47;;
19101;SDS011;9683;49.028;12.064;2023-11-21T11:42:08;223.97;;;17.73;;
19101;SDS011;9683;49.028;12.064;2023-11-21T11:44:52;180.17;;;14.50;;
19101;SDS011;9683;49.028;12.064;2023-11-21T11:47:21;187.10;;;15.10;;
19101;SDS011;9683;49.028;12.064;2023-11-21T11:50:03;148.23;;;12.70;;
19101;SDS011;9683;49.028;12.064;2023-11-21T11:52:39;190.53;;;15.23;;
19101;SDS011;9683;49.028;12.064;2023-11-21T11:55:08;188.17;;;15.07;;
19101;SDS011;9683;49.028;12.064;2023-11-21T11:57:37;186.13;;;15.30;;
19101;SDS011;9683;49.028;12.064;2023-11-21T12:00:12;182.87;;;15.20;;
19101;SDS011;9683;49.028;12.064;2023-11-21T12:02:44;183.70;;;15.80;;
19101;SDS011;9683;49.028;12.064;2023-11-21T12:05:12;204.30;;;17.63;;
19101;SDS011;9683;49.028;12.064;2023-11-21T12:07:43;185.90;;;15.47;;
19101;SDS011;9683;49.028;12.064;2023-11-21T12:10:12;164.43;;;15.37;;
19101;SDS011;9683;49.028;12.064;2023-11-21T12:12:43;185.77;;;15.23;;
19101;SDS011;9683;49.028;12.064;2023-11-21T12:15:13;193.53;;;16.83;;
19101;SDS011;9683;49.028;12.064;2023-11-21T12:17:39;184.80;;;15.97;;
19101;SDS011;9683;49.028;12.064;2023-11-21T12:20:07;225.40;;;19.77;;
19101;SDS011;9683;49.028;12.064;2023-11-21T12:22:40;188.97;;;17.70;;
19101;SDS011;9683;49.028;12.064;2023-11-21T12:25:09;236.13;;;20.17;;
19101;SDS011;9683;49.028;12.064;2023-11-21T12:27:37;211.50;;;18.20;;
19101;SDS011;9683;49.028;12.064;2023-11-21T12:30:04;199.37;;;18.30;;
19101;SDS011;9683;49.028;12.064;2023-11-21T12:32:39;198.50;;;18.40;;
19101;SDS011;9683;49.028;12.064;2023-11-21T12:35:07;210.97;;;19.30;;
19101;SDS011;9683;49.028;12.064;2023-11-21T12:37:35;199.87;;;17.87;;
19101;SDS011;9683;49.028;12.064;2023-11-21T12:40:02;177.30;;;16.47;;
19101;SDS011;9683;49.028;12.064;2023-11-21T12:42:30;232.67;;;19.93;;
19101;SDS011;9683;49.028;12.064;2023-11-21T12:45:08;198.43;;;18.60;;
19101;SDS011;9683;49.028;12.064;2023-11-21T12:47:42;216.37;;;19.93;;
19101;SDS011;9683;49.028;12.064;2023-11-21T12:50:10;191.33;;;17.23;;
19101;SDS011;9683;49.028;12.064;2023-11-21T12:52:40;183.43;;;17.40;;
19101;SDS011;9683;49.028;12.064;2023-11-21T12:55:09;208.23;;;18.90;;
19101;SDS011;9683;49.028;12.064;2023-11-21T12:57:40;209.10;;;18.43;;
19101;SDS011;9683;49.028;12.064;2023-11-21T13:00:08;216.10;;;19.33;;
19101;SDS011;9683;49.028;12.064;2023-11-21T13:02:40;212.90;;;19.47;;
19101;SDS011;9683;49.028;12.064;2023-11-21T13:05:08;184.10;;;18.07;;
19101;SDS011;9683;49.028;12.064;2023-11-21T13:07:46;199.17;;;18.87;;
19101;SDS011;9683;49.028;12.064;2023-11-21T13:10:13;204.57;;;19.30;;
19101;SDS011;9683;49.028;12.064;2023-11-21T13:12:42;173.07;;;18.53;;
19101;SDS011;9683;49.028;12.064;2023-11-21T13:15:13;203.23;;;19.77;;
19101;SDS011;9683;49.028;12.064;2023-11-21T13:17:44;186.03;;;19.50;;
19101;SDS011;9683;49.028;12.064;2023-11-21T13:20:11;210.70;;;21.13;;
19101;SDS011;9683;49.028;12.064;2023-11-21T13:22:44;195.80;;;19.40;;
19101;SDS011;9683;49.028;12.064;2023-11-21T13:25:14;170.70;;;17.63;;
19101;SDS011;9683;49.028;12.064;2023-11-21T13:27:42;203.03;;;20.67;;
19101;SDS011;9683;49.028;12.064;2023-11-21T13:30:10;175.73;;;18.00;;
19101;SDS011;9683;49.028;12.064;2023-11-21T13:32:40;202.00;;;19.50;;
19101;SDS011;9683;49.028;12.064;2023-11-21T13:35:08;166.43;;;17.40;;
19101;SDS011;9683;49.028;12.064;2023-11-21T13:37:40;171.93;;;17.30;;
19101;SDS011;9683;49.028;12.064;2023-11-21T13:40:10;199.07;;;19.83;;
19101;SDS011;9683;49.028;12.064;2023-11-21T13:42:39;185.83;;;18.80;;
19101;SDS011;9683;49.028;12.064;2023-11-21T13:45:07;177.73;;;18.80;;
19101;SDS011;9683;49.028;12.064;2023-11-21T13:47:34;201.57;;;19.40;;
19101;SDS011;9683;49.028;12.064;2023-11-21T13:50:03;176.60;;;17.90;;
19101;SDS011;9683;49.028;12.064;2023-11-21T13:52:34;190.30;;;17.40;;
19101;SDS011;9683;49.028;12.064;2023-11-21T13:55:01;177.47;;;18.33;;
19101;SDS011;9683;49.028;12.064;2023-11-21T13:57:31;181.20;;;17.77;;
19101;SDS011;9683;49.028;12.064;2023-11-21T13:59:58;191.03;;;16.87;;
19101;SDS011;9683;49.028;12.064;2023-11-21T14:02:26;184.97;;;16.70;;
19101;SDS011;9683;49.028;12.064;2023-11-21T14:04:59;194.73;;;17.53;;
19101;SDS011;9683;49.028;12.064;2023-11-21T14:07:35;201.77;;;17.33;;
19101;SDS011;9683;49.028;12.064;2023-11-21T14:10:02;186.27;;;16.73;;
19101;SDS011;9683;49.028;12.064;2023-11-21T14:12:30;179.63;;;16.73;;